Time;durP1;ratioP1;P1;durP2;ratioP2;P2;SDS_P1;SDS_P2;PMS_P1;PMS_P2;Temp;Humidity;BMP_temperature;BMP_pressure;BME280_temperature;BME280_humidity;BME280_pressure;Samples;Min_cycle;Max_cycle;Signal;HPM_P1;HPM_P2
2022/06/21 00:00:32;;;;;;;18.50;4.07;;;;;;;13.41;76.92;101715.88;5047714;28;20381;-37
2022/06/21 00:03:03;;;;;;;15.05;4.97;;;;;;;13.39;76.65;101701.69;5048652;28;20029;-34
2022/06/21 00:05:34;;;;;;;15.05;3.78;;;;;;;13.42;76.63;101697.78;5047950;28;20025;-37
2022/06/21 00:08:00;;;;;;;14.68;3.80;;;;;;;13.43;76.68;101707.56;5047075;28;20083;-35
2022/06/21 00:10:25;;;;;;;14.77;3.63;;;;;;;13.38;76.92;101714.38;5048218;28;20083;-36
2022/06/21 00:12:51;;;;;;;17.40;3.83;;;;;;;13.35;77.41;101706.63;5048113;28;20029;-35
2022/06/21 00:15:16;;;;;;;12.30;3.65;;;;;;;13.31;77.23;101702.56;5048072;28;20563;-34
2022/06/21 00:17:47;;;;;;;12.95;3.65;;;;;;;13.25;77.41;101700.56;5046108;28;20029;-32
2022/06/21 00:20:20;;;;;;;14.50;3.95;;;;;;;13.24;78.13;101698.03;5047767;28;20025;-34
2022/06/21 00:22:46;;;;;;;23.02;3.92;;;;;;;13.25;78.27;101697.84;5046067;28;20546;-35
2022/06/21 00:25:19;;;;;;;10.60;4.00;;;;;;;13.21;77.90;101699.22;5046939;28;20037;-35
2022/06/21 00:27:45;;;;;;;15.05;4.07;;;;;;;13.18;77.83;101694.19;5046271;28;20037;-40
2022/06/21 00:30:11;;;;;;;19.65;4.18;;;;;;;13.15;78.02;101689.13;5046921;28;20530;-35
2022/06/21 00:32:36;;;;;;;12.98;3.70;;;;;;;13.13;78.34;101689.28;5047134;28;20028;-36
2022/06/21 00:35:01;;;;;;;16.05;3.83;;;;;;;13.10;78.15;101686.13;5047349;28;20034;-35
2022/06/21 00:37:27;;;;;;;12.93;3.15;;;;;;;13.09;78.29;101668.22;5045513;28;20033;-35
2022/06/21 00:39:52;;;;;;;15.50;4.18;;;;;;;13.09;78.36;101669.06;5048100;28;20032;-32
2022/06/21 00:42:24;;;;;;;13.98;3.65;;;;;;;13.05;78.73;101675.84;5046584;28;20033;-34
2022/06/21 00:45:09;;;;;;;11.88;3.60;;;;;;;12.94;78.92;101679.78;5045423;28;20022;-33
2022/06/21 00:47:41;;;;;;;14.20;4.30;;;;;;;12.86;78.86;101679.00;5045667;28;20044;-33
2022/06/21 00:50:27;;;;;;;12.52;3.58;;;;;;;12.80;79.33;101674.31;5047157;28;20037;-35
2022/06/21 00:53:12;;;;;;;10.52;3.78;;;;;;;12.77;79.97;101670.09;5061756;28;20059;-33
2022/06/21 00:55:43;;;;;;;15.77;4.28;;;;;;;12.76;79.89;101678.38;5045332;28;20033;-34
2022/06/21 00:58:13;;;;;;;15.57;4.20;;;;;;;12.68;79.71;101671.13;5046438;28;20089;-35
2022/06/21 01:01:03;;;;;;;11.38;3.60;;;;;;;12.66;80.44;101665.06;5044188;28;20068;-36
2022/06/21 01:03:36;;;;;;;13.85;3.78;;;;;;;12.64;80.41;101659.00;5045116;28;20029;-36
2022/06/21 01:06:18;;;;;;;10.05;3.72;;;;;;;12.63;80.19;101660.00;5046715;28;20025;-36
2022/06/21 01:08:48;;;;;;;12.43;4.43;;;;;;;12.61;80.25;101654.81;5046575;28;20116;-35
2022/06/21 01:11:22;;;;;;;17.83;4.32;;;;;;;12.58;80.70;101654.28;5044260;28;20052;-35
2022/06/21 01:13:50;;;;;;;8.63;3.90;;;;;;;12.55;80.84;101646.56;5046591;28;20033;-34
2022/06/21 01:16:16;;;;;;;11.63;3.90;;;;;;;12.54;80.88;101647.56;5044534;28;20196;-35
2022/06/21 01:18:43;;;;;;;15.15;4.35;;;;;;;12.46;81.34;101646.59;5045837;28;20045;-36
2022/06/21 01:21:09;;;;;;;16.00;4.38;;;;;;;12.45;81.83;101655.72;5046044;28;20021;-32
2022/06/21 01:24:06;;;;;;;12.20;3.83;;;;;;;12.44;81.81;101651.31;5046131;28;20178;-36
2022/06/21 01:26:41;;;;;;;19.02;4.78;;;;;;;12.47;81.63;101659.06;5045660;28;20033;-36
2022/06/21 01:29:11;;;;;;;16.80;4.68;;;;;;;12.47;81.10;101650.13;5029168;28;20036;-38
2022/06/21 01:31:37;;;;;;;15.05;4.03;;;;;;;12.47;81.13;101647.41;5045066;28;20144;-34
2022/06/21 01:34:02;;;;;;;16.38;4.63;;;;;;;12.44;81.45;101659.41;5044244;28;20041;-33
2022/06/21 01:36:32;;;;;;;12.95;4.40;;;;;;;12.41;81.91;101659.75;5046101;28;20056;-35
2022/06/21 01:39:03;;;;;;;12.20;4.40;;;;;;;12.40;82.08;101655.41;5046376;28;20053;-33
2022/06/21 01:41:39;;;;;;;12.95;4.45;;;;;;;12.40;81.88;101659.94;5045417;28;20154;-32
2022/06/21 01:44:09;;;;;;;13.70;4.30;;;;;;;12.41;81.69;101654.38;5045757;28;20151;-32
2022/06/21 01:46:34;;;;;;;10.57;4.43;;;;;;;12.42;81.20;101660.59;5046632;28;20022;-33
2022/06/21 01:49:11;;;;;;;14.10;4.28;;;;;;;12.38;81.33;101661.97;5045106;28;20021;-34
2022/06/21 01:51:58;;;;;;;11.60;4.18;;;;;;;12.32;81.26;101655.41;5046129;28;20029;-33
2022/06/21 01:54:27;;;;;;;14.80;4.40;;;;;;;12.29;81.62;101656.59;5044383;28;20064;-39
2022/06/21 01:56:52;;;;;;;13.57;4.30;;;;;;;12.27;82.01;101653.25;5045362;28;20095;-34
2022/06/21 01:59:34;;;;;;;14.65;4.88;;;;;;;12.24;81.71;101669.78;5044857;28;20033;-33
2022/06/21 02:02:01;;;;;;;15.60;3.88;;;;;;;12.23;81.99;101667.25;5046178;28;20096;-34
2022/06/21 02:04:31;;;;;;;9.95;4.82;;;;;;;12.19;81.91;101669.47;5044282;28;20025;-37
2022/06/21 02:07:01;;;;;;;10.38;4.57;;;;;;;12.16;82.21;101661.69;5044633;28;20094;-35
2022/06/21 02:09:39;;;;;;;15.68;4.47;;;;;;;12.29;81.87;101650.34;5045425;28;20056;-37
2022/06/21 02:12:07;;;;;;;12.27;4.43;;;;;;;12.31;81.36;101642.91;5044231;28;20072;-33
2022/06/21 02:14:38;;;;;;;10.88;4.25;;;;;;;12.21;81.62;101653.91;5043839;28;20057;-32
2022/06/21 02:17:23;;;;;;;13.05;4.95;;;;;;;12.17;82.58;101662.53;5043995;28;20655;-35
2022/06/21 02:20:02;;;;;;;14.35;4.57;;;;;;;12.13;82.69;101653.09;5045349;28;20063;-35
2022/06/21 02:22:29;;;;;;;14.82;5.05;;;;;;;12.12;83.05;101654.13;5044565;28;20627;-34
2022/06/21 02:24:55;;;;;;;9.88;4.68;;;;;;;12.05;82.83;101646.69;5043698;28;20025;-35
2022/06/21 02:27:23;;;;;;;12.02;4.35;;;;;;;12.06;82.96;101637.59;5045075;28;20032;-35
2022/06/21 02:29:53;;;;;;;14.25;4.95;;;;;;;12.08;83.08;101632.03;5049226;28;20022;-36
2022/06/21 02:32:25;;;;;;;13.30;4.50;;;;;;;12.10;82.94;101629.16;5045357;28;20040;-33
2022/06/21 02:34:54;;;;;;;15.75;4.68;;;;;;;12.14;82.77;101608.91;5044947;28;20039;-35
2022/06/21 02:37:20;;;;;;;12.18;4.47;;;;;;;12.15;82.56;101611.44;5043615;28;20097;-36
2022/06/21 02:39:46;;;;;;;12.02;4.57;;;;;;;12.16;82.70;101601.47;5043531;28;20029;-36
2022/06/21 02:42:17;;;;;;;13.30;4.80;;;;;;;12.18;82.75;101594.88;5045148;28;20036;-38
2022/06/21 02:44:47;;;;;;;13.25;4.60;;;;;;;12.22;82.34;101595.41;5043402;28;20029;-36
2022/06/21 02:47:16;;;;;;;14.52;5.13;;;;;;;12.17;82.31;101581.59;5043338;28;20030;-36
2022/06/21 02:49:58;;;;;;;8.70;4.47;;;;;;;12.15;81.90;101572.81;5042847;28;20048;-35
2022/06/21 02:52:30;;;;;;;16.30;4.63;;;;;;;12.12;82.08;101563.22;5045167;28;20029;-36
2022/06/21 02:55:21;;;;;;;15.20;4.60;;;;;;;12.10;82.46;101573.34;5039474;28;20072;-35
2022/06/21 02:57:59;;;;;;;10.93;4.43;;;;;;;11.99;82.62;101574.56;5044930;28;20025;-34
2022/06/21 03:00:25;;;;;;;15.75;4.70;;;;;;;11.94;83.26;101587.72;5042538;28;20029;-32
2022/06/21 03:02:51;;;;;;;17.33;5.45;;;;;;;11.88;83.67;101588.41;5043525;28;20139;-35
2022/06/21 03:05:21;;;;;;;20.17;5.20;;;;;;;11.80;83.79;101578.44;5042438;28;20029;-35
2022/06/21 03:07:57;;;;;;;11.98;4.75;;;;;;;11.79;84.09;101578.63;5043399;28;20037;-36
2022/06/21 03:10:27;;;;;;;18.08;5.10;;;;;;;11.81;84.67;101584.69;5044557;28;20037;-35
2022/06/21 03:13:07;;;;;;;15.48;5.20;;;;;;;11.77;84.50;101603.06;5043553;28;20052;-35
2022/06/21 03:15:34;;;;;;;19.83;5.05;;;;;;;11.74;84.55;101602.56;5042856;28;20048;-33
2022/06/21 03:18:04;;;;;;;12.10;4.95;;;;;;;11.71;84.72;101597.50;5043730;28;20033;-33
2022/06/21 03:20:30;;;;;;;10.43;4.90;;;;;;;11.69;84.55;101600.41;5020348;28;20029;-33
2022/06/21 03:22:56;;;;;;;13.07;5.32;;;;;;;11.68;84.47;101604.09;5044046;28;20088;-33
2022/06/21 03:25:25;;;;;;;17.27;5.05;;;;;;;11.67;84.83;101604.28;5048911;28;20051;-35
2022/06/21 03:27:54;;;;;;;12.45;5.45;;;;;;;11.61;84.59;101598.53;5047581;28;20029;-32
2022/06/21 03:30:22;;;;;;;14.57;4.60;;;;;;;11.58;84.51;101603.41;5047399;28;20317;-34
2022/06/21 03:32:47;;;;;;;;;;;;;;;11.54;84.73;101589.44;5047681;28;20021;-37
2022/06/21 03:35:14;;;;;;;11.43;5.05;;;;;;;11.54;84.86;101585.91;5048004;28;19935;-35
2022/06/21 03:37:41;;;;;;;16.85;5.57;;;;;;;11.55;84.88;101574.94;5047577;28;20393;-33
2022/06/21 03:42:54;;;;;;;11.80;5.15;;;;;;;11.57;84.77;101559.44;5048242;28;20043;-32
2022/06/21 03:45:24;;;;;;;17.95;5.40;;;;;;;11.57;84.83;101559.44;5048106;28;20030;-35
2022/06/21 03:47:58;;;;;;;13.23;5.57;;;;;;;11.56;85.23;101568.56;5046913;28;20044;-33
2022/06/21 03:50:31;;;;;;;10.85;6.03;;;;;;;11.57;85.85;101561.31;5046010;28;20064;-35
2022/06/21 03:53:22;;;;;;;14.98;5.75;;;;;;;11.61;86.08;101565.31;5048381;28;20064;-33
2022/06/21 03:55:51;;;;;;;16.92;6.70;;;;;;;11.75;85.57;101556.56;5047240;28;20094;-35
2022/06/21 03:58:38;;;;;;;14.65;6.53;;;;;;;11.88;85.01;101537.16;5048189;28;20117;-34
2022/06/21 04:01:16;;;;;;;17.27;7.28;;;;;;;11.91;84.91;101533.28;5047901;28;20258;-36
2022/06/21 04:03:47;;;;;;;16.75;6.93;;;;;;;11.94;84.92;101528.38;5048193;28;20048;-35
2022/06/21 04:06:37;;;;;;;13.68;6.45;;;;;;;11.88;85.37;101534.47;5047503;28;20021;-34
2022/06/21 04:09:14;;;;;;;19.33;7.47;;;;;;;11.89;85.64;101533.44;5040879;28;20045;-38
2022/06/21 04:11:44;;;;;;;19.65;7.45;;;;;;;11.99;86.01;101535.94;5045178;28;20025;-33
2022/06/21 04:14:19;;;;;;;16.35;7.00;;;;;;;12.05;85.66;101535.25;5048854;28;20045;-35
2022/06/21 04:16:59;;;;;;;16.52;7.65;;;;;;;12.07;85.75;101544.84;5048756;28;20036;-35
2022/06/21 04:19:32;;;;;;;18.60;7.90;;;;;;;12.07;85.80;101542.16;5032627;28;20044;-33
2022/06/21 04:22:08;;;;;;;18.60;7.82;;;;;;;12.14;86.00;101544.13;5048316;28;20049;-34
2022/06/21 04:25:20;;;;;;;18.83;8.13;;;;;;;12.29;85.89;101539.69;5047236;28;20025;-33
2022/06/21 04:28:06;;;;;;;16.80;7.75;;;;;;;12.46;85.12;101541.28;5043906;28;20062;-34
2022/06/21 04:30:42;;;;;;;23.00;8.27;;;;;;;12.51;84.90;101544.31;5047849;28;20112;-33
2022/06/21 04:33:42;;;;;;;18.45;8.00;;;;;;;12.64;84.60;101551.81;5047641;28;20041;-34
2022/06/21 04:36:07;;;;;;;16.83;7.78;;;;;;;12.73;84.50;101552.59;5030134;28;20258;-35
2022/06/21 04:38:54;;;;;;;17.08;8.05;;;;;;;12.86;84.17;101549.31;5049080;28;20441;-33
2022/06/21 04:41:32;;;;;;;13.50;8.57;;;;;;;12.98;83.90;101552.44;5048754;28;20037;-35
2022/06/21 04:44:19;;;;;;;22.73;8.40;;;;;;;13.14;81.79;101542.34;5045539;28;20037;-33
2022/06/21 04:46:54;;;;;;;15.07;8.05;;;;;;;13.23;81.01;101548.50;5049308;28;20048;-34
2022/06/21 04:49:25;;;;;;;17.13;7.70;;;;;;;13.25;80.59;101538.38;5051174;28;20120;-38
2022/06/21 04:52:16;;;;;;;14.93;7.65;;;;;;;13.23;80.59;101543.09;5048378;28;20033;-34
2022/06/21 04:54:42;;;;;;;17.83;7.90;;;;;;;13.32;81.03;101539.34;5037150;28;20100;-35
2022/06/21 04:57:26;;;;;;;18.75;8.40;;;;;;;13.47;80.66;101544.78;5048180;28;20083;-33
2022/06/21 04:59:55;;;;;;;18.77;8.20;;;;;;;13.60;79.69;101544.97;5052052;28;20029;-39
2022/06/21 05:02:28;;;;;;;20.30;7.75;;;;;;;13.69;78.90;101540.34;5062116;28;20076;-37
2022/06/21 05:05:02;;;;;;;22.85;8.15;;;;;;;13.79;78.39;101540.88;5031110;28;20026;-37
2022/06/21 05:07:32;;;;;;;16.55;8.18;;;;;;;13.82;77.86;101545.94;5048878;28;20036;-38
2022/06/21 05:09:58;;;;;;;25.52;10.10;;;;;;;13.84;77.67;101543.88;5046325;28;20735;-37
2022/06/21 05:12:42;;;;;;;20.95;8.13;;;;;;;13.89;77.35;101534.38;5029557;28;20029;-34
2022/06/21 05:15:16;;;;;;;14.07;7.78;;;;;;;13.89;77.37;101539.78;5047262;28;20041;-35
2022/06/21 05:17:44;;;;;;;13.48;7.75;;;;;;;13.98;78.18;101552.19;5040947;28;20017;-34
2022/06/21 05:20:19;;;;;;;20.40;7.22;;;;;;;14.13;77.67;101558.44;5030166;28;20029;-34
2022/06/21 05:22:53;;;;;;;21.58;6.80;;;;;;;14.22;76.60;101560.03;5049849;28;20025;-37
2022/06/21 05:25:27;;;;;;;16.00;6.47;;;;;;;14.35;76.11;101563.91;5062753;28;20045;-33
2022/06/21 05:28:14;;;;;;;20.67;7.20;;;;;;;14.31;76.17;101571.59;5052910;28;20040;-33
2022/06/21 05:30:51;;;;;;;18.30;5.55;;;;;;;14.30;75.13;101569.91;5048651;28;20033;-33
2022/06/21 05:33:21;;;;;;;12.68;4.78;;;;;;;14.38;75.05;101574.38;5048052;28;20037;-33
2022/06/21 05:35:47;;;;;;;18.33;5.13;;;;;;;14.35;74.14;101566.63;5051272;28;20063;-33
2022/06/21 05:38:18;;;;;;;16.50;5.22;;;;;;;14.49;74.59;101571.19;5053526;28;20025;-37
2022/06/21 05:40:50;;;;;;;16.38;4.55;;;;;;;14.71;73.12;101575.63;5030706;28;20040;-34
2022/06/21 05:43:20;;;;;;;15.00;4.68;;;;;;;14.83;72.47;101577.84;5048835;28;20056;-36
2022/06/21 05:46:03;;;;;;;14.98;4.47;;;;;;;14.87;72.27;101588.09;5054967;28;20037;-35
2022/06/21 05:48:32;;;;;;;19.10;4.90;;;;;;;14.95;73.10;101578.16;5060918;28;20029;-34
2022/06/21 05:51:00;;;;;;;15.38;4.57;;;;;;;15.01;72.27;101572.84;5051598;28;20099;-35
2022/06/21 05:53:39;;;;;;;21.80;5.18;;;;;;;15.11;72.21;101573.34;5046547;28;20090;-33
2022/06/21 05:56:11;;;;;;;13.82;4.45;;;;;;;15.15;72.29;101580.06;5043835;28;20071;-35
2022/06/21 05:58:46;;;;;;;10.15;4.60;;;;;;;15.21;72.33;101583.03;5046342;28;20271;-36
2022/06/21 06:01:37;;;;;;;16.60;5.10;;;;;;;15.25;71.64;101589.75;5050632;28;20049;-33
2022/06/21 06:04:15;;;;;;;9.70;4.22;;;;;;;15.03;72.02;101586.19;5053048;28;20120;-35
2022/06/21 06:06:42;;;;;;;10.05;3.58;;;;;;;15.00;72.54;101589.28;5048384;28;20549;-32
2022/06/21 06:09:13;;;;;;;14.23;4.40;;;;;;;15.01;72.51;101594.53;5053237;28;20029;-35
2022/06/21 06:12:00;;;;;;;15.25;4.25;;;;;;;14.88;72.49;101599.81;5054428;28;20037;-37
2022/06/21 06:14:34;;;;;;;18.23;4.45;;;;;;;14.86;73.37;101596.44;5044493;28;20037;-37
2022/06/21 06:17:03;;;;;;;12.75;4.25;;;;;;;14.85;73.25;101598.31;5043728;28;20093;-32
2022/06/21 06:19:36;;;;;;;10.82;5.18;;;;;;;14.91;73.63;101607.53;5043729;28;20087;-35
2022/06/21 06:22:05;;;;;;;14.48;4.82;;;;;;;14.96;73.77;101610.53;5045544;28;20128;-36
2022/06/21 06:24:34;;;;;;;14.63;5.38;;;;;;;15.12;73.53;101604.84;5043371;28;20036;-33
2022/06/21 06:27:03;;;;;;;24.70;5.53;;;;;;;15.26;72.79;101602.25;5044614;28;20155;-35
2022/06/21 06:29:36;;;;;;;16.05;5.47;;;;;;;15.45;72.87;101601.59;5043169;28;20025;-33
2022/06/21 06:32:11;;;;;;;15.85;5.40;;;;;;;15.71;72.30;101605.59;5043369;28;20483;-34
2022/06/21 06:34:43;;;;;;;13.98;5.80;;;;;;;15.86;71.23;101619.06;5041012;28;20044;-31
2022/06/21 06:37:22;;;;;;;17.92;6.45;;;;;;;15.52;71.19;101618.78;5034023;28;20033;-35
2022/06/21 06:39:47;;;;;;;21.23;6.32;;;;;;;15.51;72.54;101621.69;5043971;28;20029;-34
2022/06/21 06:42:24;;;;;;;13.10;4.68;;;;;;;15.76;71.84;101611.28;5045320;28;20026;-34
2022/06/21 06:44:53;;;;;;;10.60;4.40;;;;;;;15.98;71.63;101610.19;5026342;28;20029;-34
2022/06/21 06:47:25;;;;;;;11.43;3.60;;;;;;;16.34;70.23;101617.25;5042508;28;20281;-34
2022/06/21 06:50:12;;;;;;;8.40;3.75;;;;;;;16.45;68.13;101613.97;5043355;28;20299;-32
2022/06/21 06:52:41;;;;;;;10.80;2.78;;;;;;;16.54;66.69;101621.97;5044638;28;20037;-33
2022/06/21 06:55:15;;;;;;;12.85;3.13;;;;;;;16.44;67.20;101617.75;5045538;28;20527;-34
2022/06/21 06:57:43;;;;;;;8.32;3.10;;;;;;;16.21;67.50;101623.47;5046244;28;20033;-36
2022/06/21 07:00:12;;;;;;;;;;;;;;;16.12;68.68;101623.84;5047321;28;20029;-33
2022/06/21 07:02:46;;;;;;;11.48;3.50;;;;;;;16.15;68.25;101618.00;5046772;28;19983;-35
2022/06/21 07:05:19;;;;;;;11.90;3.63;;;;;;;16.84;67.52;101623.34;5045392;28;20026;-34
2022/06/21 07:07:57;;;;;;;9.00;2.80;;;;;;;17.62;63.97;101614.69;5047198;28;20037;-35
2022/06/21 07:10:25;;;;;;;10.43;3.20;;;;;;;18.05;62.27;101619.69;5046020;28;20159;-32
2022/06/21 07:12:51;;;;;;;;;;;;;;;18.90;59.56;101619.63;5047490;28;20021;-32
2022/06/21 07:15:17;;;;;;;7.82;2.80;;;;;;;19.87;56.59;101620.19;5062387;28;19948;-35
2022/06/21 07:17:49;;;;;;;12.35;3.25;;;;;;;20.77;55.44;101621.50;5046719;28;20029;-32
2022/06/21 07:20:19;;;;;;;7.30;2.47;;;;;;;21.92;51.11;101623.94;5048063;28;20036;-34
2022/06/21 07:22:45;;;;;;;9.30;2.75;;;;;;;22.73;46.38;101618.56;5048622;28;20030;-35
2022/06/21 07:25:24;;;;;;;12.18;3.15;;;;;;;22.94;47.26;101619.78;5048267;28;20043;-33
2022/06/21 07:27:54;;;;;;;11.13;3.20;;;;;;;22.89;46.64;101622.44;5047358;28;20025;-34
2022/06/21 07:30:22;;;;;;;12.27;3.20;;;;;;;22.72;47.65;101624.28;5046068;28;20037;-37
2022/06/21 07:32:52;;;;;;;8.13;2.90;;;;;;;22.58;46.83;101616.34;5048583;28;20044;-33
2022/06/21 07:35:25;;;;;;;8.57;2.88;;;;;;;22.57;46.74;101614.69;5048271;28;20037;-36
2022/06/21 07:38:02;;;;;;;10.18;2.70;;;;;;;23.12;45.60;101612.47;5047850;28;20033;-32
2022/06/21 07:40:34;;;;;;;8.93;2.78;;;;;;;23.59;44.59;101610.25;5030751;28;20041;-38
2022/06/21 07:43:14;;;;;;;7.97;2.70;;;;;;;22.84;44.86;101600.38;5048320;28;20066;-36
2022/06/21 07:45:55;;;;;;;9.30;2.75;;;;;;;21.83;47.13;101594.41;5047932;28;20029;-36
2022/06/21 07:48:45;;;;;;;9.02;2.60;;;;;;;23.45;44.56;101597.91;5048362;28;20025;-35
2022/06/21 07:51:15;;;;;;;15.05;2.95;;;;;;;22.83;43.95;101590.50;5048229;28;20036;-36
2022/06/21 07:53:46;;;;;;;12.27;2.75;;;;;;;23.78;42.70;101591.59;5047361;28;20045;-36
2022/06/21 07:56:18;;;;;;;6.07;2.30;;;;;;;25.00;40.76;101590.66;5049303;28;20038;-35
2022/06/21 07:58:48;;;;;;;10.38;2.65;;;;;;;25.78;38.70;101580.03;5048229;28;20029;-40
2022/06/21 08:07:34;;;;;;;5.57;2.38;;;;;;;25.89;37.78;101570.75;5049647;28;20097;-37
2022/06/21 08:10:07;;;;;;;7.00;2.72;;;;;;;25.93;38.40;101576.53;5051503;28;20142;-33
2022/06/21 08:12:32;;;;;;;11.48;3.00;;;;;;;25.33;38.09;101584.06;5052215;28;20021;-34
2022/06/21 08:15:02;;;;;;;10.05;3.08;;;;;;;24.45;39.86;101581.53;5051119;28;20036;-35
2022/06/21 08:17:40;;;;;;;11.48;2.85;;;;;;;24.61;40.56;101583.34;5051396;28;20029;-38
2022/06/21 08:20:25;;;;;;;9.27;2.55;;;;;;;25.21;38.46;101580.69;5053266;28;20033;-35
2022/06/21 08:23:03;;;;;;;7.72;2.70;;;;;;;25.21;38.03;101570.50;5051681;28;20033;-33
2022/06/21 08:25:45;;;;;;;8.57;2.65;;;;;;;24.96;36.49;101574.66;5050615;28;20089;-36
2022/06/21 08:28:17;;;;;;;12.30;2.80;;;;;;;24.05;39.34;101580.72;5052044;28;20099;-34
2022/06/21 08:30:48;;;;;;;10.45;2.90;;;;;;;24.92;38.47;101568.00;5035843;28;20025;-34
2022/06/21 08:33:18;;;;;;;11.27;2.90;;;;;;;25.85;36.34;101558.56;5052640;28;20025;-35
2022/06/21 08:35:50;;;;;;;8.27;2.58;;;;;;;26.49;35.63;101566.59;5051733;28;20041;-35
2022/06/21 08:38:37;;;;;;;9.60;2.67;;;;;;;26.84;35.52;101566.97;5051843;28;20025;-37
2022/06/21 08:44:36;;;;;;;8.70;2.78;;;;;;;27.34;34.23;101566.19;5051971;28;20128;-34
2022/06/21 08:47:31;;;;;;;13.60;3.30;;;;;;;27.52;34.30;101570.34;5052967;28;20080;-37
2022/06/21 08:50:26;;;;;;;13.00;2.72;;;;;;;27.20;35.12;101569.78;5051010;28;20026;-34
2022/06/21 08:53:14;;;;;;;14.82;2.80;;;;;;;28.34;32.16;101552.69;5051564;28;20066;-34
2022/06/21 08:55:56;;;;;;;6.18;2.70;;;;;;;27.63;33.52;101560.09;5051950;28;20040;-33
2022/06/21 08:58:34;;;;;;;9.75;2.60;;;;;;;28.13;33.33;101568.56;5052705;28;20025;-34
2022/06/21 09:01:26;;;;;;;9.20;3.13;;;;;;;28.47;32.47;101557.63;5052422;28;20080;-35
2022/06/21 09:04:30;;;;;;;11.25;2.95;;;;;;;28.00;32.25;101570.00;5051299;28;20033;-36
2022/06/21 09:07:27;;;;;;;8.05;2.92;;;;;;;26.65;33.34;101555.63;5050993;28;20029;-35
2022/06/21 09:09:55;;;;;;;5.15;2.38;;;;;;;25.55;35.02;101553.69;5052850;28;20030;-32
2022/06/21 09:12:50;;;;;;;11.43;3.20;;;;;;;26.92;33.92;101550.69;5051996;28;20188;-36
2022/06/21 09:15:27;;;;;;;8.43;2.58;;;;;;;27.66;32.07;101554.00;5052045;28;20162;-37
2022/06/21 09:18:11;;;;;;;9.55;2.85;;;;;;;27.54;32.77;101546.00;5051648;28;20049;-35
2022/06/21 09:20:59;;;;;;;9.10;2.90;;;;;;;25.49;35.74;101546.44;5049632;28;20025;-35
2022/06/21 09:23:40;;;;;;;18.33;3.47;;;;;;;23.47;39.99;101546.31;5048352;28;20025;-34
2022/06/21 09:26:13;;;;;;;10.63;2.53;;;;;;;22.95;41.33;101539.09;5050469;28;20035;-36
2022/06/21 09:28:50;;;;;;;15.90;3.22;;;;;;;23.51;40.54;101541.94;5050314;28;20043;-36
2022/06/21 09:31:21;;;;;;;11.18;3.03;;;;;;;24.22;40.19;101541.31;5049642;28;20061;-35
2022/06/21 09:33:59;;;;;;;13.27;3.78;;;;;;;23.68;40.10;101539.19;5050540;28;20044;-33
2022/06/21 09:36:43;;;;;;;7.22;2.90;;;;;;;23.49;40.86;101540.56;5048672;28;20052;-34
2022/06/21 09:39:22;;;;;;;8.95;2.47;;;;;;;24.55;39.29;101545.88;5051178;28;20068;-35
2022/06/21 09:41:56;;;;;;;11.38;2.72;;;;;;;25.40;36.90;101535.09;5050356;28;20026;-36
2022/06/21 09:44:56;;;;;;;12.57;3.20;;;;;;;26.91;34.02;101543.50;5051661;28;20036;-39
2022/06/21 09:47:33;;;;;;;8.80;2.67;;;;;;;25.98;33.99;101536.03;5051370;28;20052;-37
2022/06/21 09:50:12;;;;;;;5.95;2.35;;;;;;;25.63;35.95;101534.69;5049899;28;20028;-36
2022/06/21 09:52:49;;;;;;;8.48;2.85;;;;;;;26.38;33.84;101531.75;5050831;28;20099;-34
2022/06/21 09:55:21;;;;;;;9.48;2.53;;;;;;;26.65;34.70;101528.00;5052224;28;20024;-33
2022/06/21 09:58:08;;;;;;;11.30;2.28;;;;;;;27.35;32.18;101531.91;5051463;28;20089;-37
2022/06/21 10:00:40;;;;;;;9.30;2.45;;;;;;;27.14;32.85;101525.53;5049383;28;20033;-35
2022/06/21 10:03:18;;;;;;;5.72;2.30;;;;;;;26.98;32.66;101523.06;5049361;28;20633;-35
2022/06/21 10:06:05;;;;;;;8.93;2.47;;;;;;;25.74;34.52;101518.22;5047022;28;20021;-37
2022/06/21 10:08:46;;;;;;;11.23;2.70;;;;;;;24.98;36.78;101522.06;5048415;28;20047;-36
2022/06/21 10:11:42;;;;;;;4.53;2.35;;;;;;;24.24;37.41;101517.13;5048346;28;20043;-36
2022/06/21 10:14:20;;;;;;;10.65;2.63;;;;;;;24.23;37.41;101510.81;5048177;28;20112;-37
2022/06/21 10:17:13;;;;;;;7.03;2.28;;;;;;;25.11;36.76;101507.00;5049785;28;20093;-34
2022/06/21 10:19:46;;;;;;;8.10;2.58;;;;;;;25.45;35.39;101510.31;5049156;28;20030;-36
2022/06/21 10:22:29;;;;;;;7.90;2.78;;;;;;;25.56;35.78;101505.72;5049797;28;20033;-36
2022/06/21 10:25:22;;;;;;;9.68;2.58;;;;;;;25.77;35.00;101503.91;5049571;28;20013;-36
2022/06/21 10:28:12;;;;;;;6.50;2.33;;;;;;;25.54;35.30;101489.47;5050384;28;20085;-37
2022/06/21 10:30:53;;;;;;;7.35;2.33;;;;;;;25.77;36.11;101493.69;5049308;28;20049;-34
2022/06/21 10:33:22;;;;;;;6.88;2.28;;;;;;;26.30;34.16;101490.88;5048727;28;20030;-38
2022/06/21 10:35:55;;;;;;;7.25;2.13;;;;;;;27.07;33.78;101496.56;5049824;28;20036;-37
2022/06/21 10:38:52;;;;;;;6.97;2.10;;;;;;;27.63;32.91;101492.91;5050917;28;20040;-34
2022/06/21 10:41:29;;;;;;;11.07;2.30;;;;;;;28.01;32.29;101488.63;5035264;28;20013;-36
2022/06/21 10:44:32;;;;;;;5.97;2.45;;;;;;;28.36;32.01;101486.81;5051056;28;20055;-34
2022/06/21 10:47:13;;;;;;;8.85;2.28;;;;;;;28.12;31.42;101479.19;5050725;28;20028;-34
2022/06/21 10:49:53;;;;;;;9.15;2.83;;;;;;;28.98;31.98;101488.00;5051511;28;20009;-35
2022/06/21 10:52:57;;;;;;;14.90;3.70;;;;;;;29.67;32.50;101485.16;5051075;28;20064;-34
2022/06/21 10:55:44;;;;;;;19.25;3.45;;;;;;;30.20;30.27;101493.38;5049046;28;20045;-36
2022/06/21 10:58:50;;;;;;;8.77;2.58;;;;;;;30.51;27.11;101493.78;5030388;28;20036;-38
2022/06/21 11:01:32;;;;;;;10.55;2.50;;;;;;;30.06;28.36;101481.34;5048997;28;20061;-34
2022/06/21 11:04:19;;;;;;;5.68;2.30;;;;;;;29.54;28.14;101484.75;5049271;28;20044;-35
2022/06/21 11:07:03;;;;;;;7.30;2.95;;;;;;;29.63;28.13;101484.09;5050159;28;20033;-34
2022/06/21 11:09:43;;;;;;;6.57;2.47;;;;;;;29.76;27.63;101494.50;5048977;28;20034;-34
2022/06/21 11:15:13;;;;;;;8.40;2.17;;;;;;;28.44;29.38;101480.69;5047527;28;20091;-34
2022/06/21 11:17:44;;;;;;;5.47;2.28;;;;;;;27.82;29.11;101484.84;5048238;28;20040;-35
2022/06/21 11:20:28;;;;;;;9.43;2.55;;;;;;;26.73;30.14;101491.56;5047698;28;20030;-34
2022/06/21 11:23:12;;;;;;;6.57;1.98;;;;;;;27.06;30.28;101484.66;5048519;28;20044;-35
2022/06/21 11:25:48;;;;;;;7.20;2.40;;;;;;;26.78;29.51;101491.59;5048917;28;20035;-35
2022/06/21 11:28:40;;;;;;;5.03;2.17;;;;;;;27.05;29.52;101487.72;5048813;28;20179;-37
2022/06/21 11:31:14;;;;;;;6.43;2.10;;;;;;;26.46;30.47;101483.47;5049085;28;20037;-35
2022/06/21 11:34:06;;;;;;;8.20;2.00;;;;;;;26.95;30.12;101476.66;5048761;28;20028;-33
2022/06/21 11:36:43;;;;;;;8.35;2.40;;;;;;;27.34;29.62;101482.47;5047700;28;20037;-35
2022/06/21 11:39:21;;;;;;;6.15;2.10;;;;;;;25.86;30.69;101479.41;5045997;28;20051;-37
2022/06/21 11:42:12;;;;;;;3.63;1.70;;;;;;;26.02;30.99;101479.22;5048744;28;20116;-35
2022/06/21 11:45:03;;;;;;;6.40;2.17;;;;;;;26.11;30.39;101467.66;5050756;28;20033;-36
2022/06/21 11:47:46;;;;;;;5.28;2.08;;;;;;;26.45;29.96;101473.56;5051534;28;20125;-38
2022/06/21 11:50:20;;;;;;;4.90;2.20;;;;;;;26.98;29.63;101474.16;5051706;28;20021;-34
2022/06/21 11:53:01;;;;;;;5.07;1.75;;;;;;;27.23;29.08;101467.00;5052159;28;20049;-36
2022/06/21 11:55:35;;;;;;;7.22;2.00;;;;;;;27.60;27.88;101468.59;5051114;28;20037;-35
2022/06/21 11:58:19;;;;;;;9.98;2.20;;;;;;;27.17;29.12;101470.84;5050361;28;20064;-35
2022/06/21 12:00:48;;;;;;;6.00;1.98;;;;;;;26.87;30.21;101458.72;5051002;28;20025;-34
2022/06/21 12:03:28;;;;;;;6.90;2.50;;;;;;;27.19;30.46;101454.84;5050879;28;20056;-36
2022/06/21 12:05:57;;;;;;;7.55;2.42;;;;;;;27.19;31.04;101461.19;5049347;28;20017;-32
2022/06/21 12:08:27;;;;;;;5.43;2.22;;;;;;;27.06;30.27;101457.03;5050846;28;20030;-39
2022/06/21 12:11:15;;;;;;;4.75;2.38;;;;;;;26.59;31.01;101451.78;5049617;28;20090;-33
2022/06/21 12:13:59;;;;;;;5.35;2.25;;;;;;;26.88;30.80;101441.88;5049792;28;20025;-35